Time;durP1;ratioP1;P1;durP2;ratioP2;P2;SDS_P1;SDS_P2;PMS_P1;PMS_P2;Temp;Humidity;BMP_temperature;BMP_pressure;BME280_temperature;BME280_humidity;BME280_pressure;Samples;Min_cycle;Max_cycle;Signal;HPM_P1;HPM_P2
2022/11/06 00:01:15;;;;;;;12.90;9.02;;;14.00;99.90;;;;;;5052724;28;20064;-68
2022/11/06 00:04:19;;;;;;;13.68;9.77;;;14.00;99.90;;;;;;5052743;28;20036;-67
2022/11/06 00:07:23;;;;;;;13.73;9.13;;;14.00;99.90;;;;;;5052527;28;20044;-68
2022/11/06 00:10:30;;;;;;;29.25;21.23;;;14.00;99.90;;;;;;5052776;28;20048;-69
2022/11/06 00:13:33;;;;;;;23.35;17.80;;;14.00;99.90;;;;;;5052316;28;20067;-68
2022/11/06 00:16:39;;;;;;;21.77;16.73;;;14.10;99.90;;;;;;5052776;28;20055;-69
2022/11/06 00:19:42;;;;;;;24.85;17.83;;;14.20;99.90;;;;;;5052371;28;20400;-69
2022/11/06 00:22:47;;;;;;;22.92;16.75;;;14.20;99.90;;;;;;5052164;28;20503;-67
2022/11/06 00:25:55;;;;;;;20.83;13.15;;;14.10;99.90;;;;;;5052411;28;20047;-67
2022/11/06 00:29:00;;;;;;;20.15;13.68;;;14.10;99.90;;;;;;5051548;28;20092;-68
2022/11/06 00:32:04;;;;;;;15.98;10.63;;;14.10;99.90;;;;;;5052150;28;20052;-67
2022/11/06 00:35:07;;;;;;;15.60;11.38;;;14.00;99.90;;;;;;5052238;28;20539;-67
2022/11/06 00:38:11;;;;;;;16.52;12.38;;;14.00;99.90;;;;;;5052035;28;20051;-67
2022/11/06 00:41:16;;;;;;;14.32;11.32;;;13.90;99.90;;;;;;5052041;28;20040;-66
2022/11/06 00:44:21;;;;;;;14.93;10.82;;;13.90;99.90;;;;;;5051811;28;20071;-67
2022/11/06 00:47:25;;;;;;;17.95;11.30;;;14.00;99.90;;;;;;5051938;28;20603;-68
2022/11/06 00:50:28;;;;;;;14.50;10.00;;;14.10;99.90;;;;;;5051620;28;20063;-67
2022/11/06 00:53:33;;;;;;;14.23;10.25;;;14.00;99.90;;;;;;5051595;28;20221;-67
2022/11/06 00:56:37;;;;;;;13.68;9.93;;;14.00;99.90;;;;;;5051940;28;20040;-67
2022/11/06 00:59:41;;;;;;;15.15;9.90;;;14.00;99.90;;;;;;5051721;28;20040;-67
2022/11/06 01:02:45;;;;;;;13.48;9.55;;;14.10;99.90;;;;;;5051867;28;20040;-68
2022/11/06 01:05:49;;;;;;;13.07;9.63;;;14.10;99.90;;;;;;5051862;28;20048;-67
2022/11/06 01:08:54;;;;;;;12.52;9.27;;;14.00;99.90;;;;;;5051507;28;20428;-67
2022/11/06 01:11:59;;;;;;;11.93;9.50;;;14.10;99.90;;;;;;5051715;28;20048;-66
2022/11/06 01:15:04;;;;;;;11.80;8.55;;;14.10;99.90;;;;;;5051498;28;20064;-68
2022/11/06 01:18:08;;;;;;;11.52;8.40;;;14.10;99.90;;;;;;5051432;28;20048;-68
2022/11/06 01:21:15;;;;;;;10.95;8.45;;;14.10;99.90;;;;;;5051544;28;20048;-68
2022/11/06 01:24:25;;;;;;;12.98;8.88;;;14.00;99.90;;;;;;5051402;28;20044;-68
2022/11/06 01:27:29;;;;;;;13.32;9.50;;;13.80;99.90;;;;;;5051321;28;20051;-68
2022/11/06 01:30:36;;;;;;;13.07;8.75;;;13.70;99.90;;;;;;5051356;28;20063;-68
2022/11/06 01:33:40;;;;;;;14.20;9.95;;;13.70;99.90;;;;;;5050941;28;20215;-68
2022/11/06 01:36:45;;;;;;;14.57;10.05;;;13.60;99.90;;;;;;5051297;28;20035;-68
2022/11/06 01:39:49;;;;;;;16.88;9.95;;;13.60;99.90;;;;;;5050978;28;20048;-68
2022/11/06 01:42:53;;;;;;;14.48;9.25;;;13.70;99.90;;;;;;5050828;28;20040;-68
2022/11/06 01:45:57;;;;;;;12.80;9.27;;;13.70;99.90;;;;;;5051009;28;20055;-68
2022/11/06 01:49:08;;;;;;;12.85;8.80;;;13.80;99.90;;;;;;5050943;28;20048;-68
2022/11/06 01:52:15;;;;;;;10.95;7.70;;;13.80;99.90;;;;;;5050988;28;20056;-68
2022/11/06 01:55:26;;;;;;;10.23;7.82;;;13.80;99.90;;;;;;5051108;28;20044;-68
2022/11/06 01:58:32;;;;;;;11.93;7.93;;;13.80;99.90;;;;;;5051187;28;20052;-68
2022/11/06 02:01:36;;;;;;;12.82;8.63;;;13.80;99.90;;;;;;5050354;28;20048;-68
2022/11/06 02:04:43;;;;;;;11.48;7.97;;;13.80;99.90;;;;;;5051070;28;20044;-68
2022/11/06 02:07:48;;;;;;;12.40;8.70;;;13.80;99.90;;;;;;5054906;28;20044;-68
2022/11/06 02:10:52;;;;;;;12.10;8.95;;;13.80;99.90;;;;;;5055031;28;20048;-68
2022/11/06 02:14:06;;;;;;;11.25;7.10;;;13.80;99.90;;;;;;5054554;28;20052;-68
2022/11/06 02:17:38;;;;;;;12.82;7.70;;;13.70;99.90;;;;;;5054907;28;20047;-68
2022/11/06 02:20:57;;;;;;;10.32;7.60;;;13.80;99.90;;;;;;5054958;28;20052;-68
2022/11/06 02:24:10;;;;;;;12.68;7.53;;;13.80;99.90;;;;;;5054870;28;20048;-68
2022/11/06 02:27:16;;;;;;;13.50;7.18;;;13.80;99.90;;;;;;5054785;28;20047;-68
2022/11/06 02:30:21;;;;;;;9.13;6.93;;;13.80;99.90;;;;;;5054510;28;20060;-68
2022/11/06 02:33:32;;;;;;;8.73;6.70;;;13.80;99.90;;;;;;5054395;28;20052;-68
2022/11/06 02:36:43;;;;;;;;;;;13.80;99.90;;;;;;5054986;28;20043;-68
2022/11/06 02:39:48;;;;;;;9.40;6.82;;;13.90;99.90;;;;;;5054448;28;19935;-68
2022/11/06 02:42:54;;;;;;;8.00;6.20;;;13.80;99.90;;;;;;5054257;28;20507;-68
2022/11/06 02:46:08;;;;;;;12.13;6.90;;;13.80;99.90;;;;;;5054272;28;20048;-68
2022/11/06 02:49:29;;;;;;;7.88;6.57;;;13.90;99.90;;;;;;5054200;28;20412;-68
2022/11/06 02:52:44;;;;;;;10.13;6.60;;;13.90;99.90;;;;;;5054200;28;20522;-68
2022/11/06 02:55:51;;;;;;;9.13;6.55;;;13.80;99.90;;;;;;5054356;28;20052;-68
2022/11/06 02:59:18;;;;;;;6.28;5.05;;;13.80;99.90;;;;;;5054096;28;20037;-68
2022/11/06 03:02:39;;;;;;;5.43;3.97;;;13.80;99.90;;;;;;5053887;28;20045;-68
2022/11/06 03:06:07;;;;;;;8.57;4.65;;;13.80;99.90;;;;;;5054224;28;20039;-68
2022/11/06 03:09:18;;;;;;;6.60;4.15;;;13.80;99.90;;;;;;5053913;28;20535;-68
2022/11/06 03:12:25;;;;;;;5.75;3.88;;;13.80;99.90;;;;;;5053716;28;20044;-68
2022/11/06 03:15:41;;;;;;;6.38;3.30;;;13.90;99.90;;;;;;5052606;28;20033;-68
2022/11/06 03:18:53;;;;;;;5.05;2.83;;;13.90;99.90;;;;;;5052823;28;20048;-68
2022/11/06 03:22:02;;;;;;;4.60;2.70;;;13.90;99.90;;;;;;5053500;28;20033;-68
2022/11/06 03:25:26;;;;;;;2.97;2.63;;;13.90;99.90;;;;;;5053769;28;20064;-68
2022/11/06 03:28:34;;;;;;;4.15;2.70;;;13.90;99.90;;;;;;5053225;28;20420;-68
2022/11/06 03:31:48;;;;;;;2.55;2.25;;;13.90;99.90;;;;;;5053288;28;20029;-68
2022/11/06 03:34:57;;;;;;;4.72;2.50;;;14.00;99.90;;;;;;5053474;28;20048;-68
2022/11/06 03:38:14;;;;;;;4.32;1.95;;;14.10;99.90;;;;;;5053549;28;20496;-68
2022/11/06 03:41:24;;;;;;;2.58;1.80;;;14.10;99.90;;;;;;5053502;28;20615;-68
2022/11/06 03:44:31;;;;;;;2.58;1.52;;;14.20;99.90;;;;;;5053300;28;20044;-68
2022/11/06 03:47:56;;;;;;;2.90;1.65;;;14.10;99.90;;;;;;5053438;28;20396;-68
2022/11/06 03:51:11;;;;;;;2.15;1.40;;;14.10;99.90;;;;;;5053022;28;20392;-68
2022/11/06 03:54:39;;;;;;;2.10;1.33;;;14.00;99.90;;;;;;5052796;28;20057;-68
2022/11/06 03:57:50;;;;;;;2.42;1.10;;;13.90;99.90;;;;;;5052744;28;20535;-68
2022/11/06 04:00:57;;;;;;;11.55;2.40;;;13.90;99.90;;;;;;5052923;28;20044;-68
2022/11/06 04:04:07;;;;;;;7.68;2.10;;;13.80;99.90;;;;;;5052769;28;20044;-68
2022/11/06 04:07:15;;;;;;;4.55;1.70;;;13.90;99.90;;;;;;5052897;28;20043;-68
2022/11/06 04:13:56;;;;;;;2.90;1.90;;;14.00;99.90;;;;;;5052504;28;20052;-68
2022/11/06 04:17:03;;;;;;;4.13;2.15;;;14.10;99.90;;;;;;5052858;28;20503;-68
2022/11/06 04:21:20;;;;;;;4.85;1.90;;;14.10;99.90;;;;;;5052852;28;20054;-68
2022/11/06 04:26:34;;;;;;;3.65;2.70;;;14.10;99.90;;;;;;5052301;28;20116;-68
2022/11/06 04:27:51;;;;;;;3.45;2.30;;;13.90;99.90;;;;;;5052315;28;20044;-68
2022/11/06 04:31:29;;;;;;;4.20;1.80;;;13.90;99.90;;;;;;5051008;28;20044;-68
2022/11/06 04:34:48;;;;;;;4.88;1.90;;;13.90;99.90;;;;;;5052134;28;20051;-68
2022/11/06 04:38:12;;;;;;;2.40;1.70;;;14.00;99.90;;;;;;5052075;28;20045;-68
2022/11/06 04:41:35;;;;;;;7.65;1.80;;;13.90;99.90;;;;;;5052526;28;20049;-68
2022/11/06 04:44:44;;;;;;;3.63;2.20;;;13.90;99.90;;;;;;5052205;28;20040;-68
2022/11/06 04:47:50;;;;;;;2.08;1.65;;;13.90;99.90;;;;;;5051790;28;20040;-68
2022/11/06 04:51:00;;;;;;;3.38;2.10;;;13.90;99.90;;;;;;5051733;28;20048;-68
2022/11/06 04:54:07;;;;;;;2.20;1.80;;;13.80;99.90;;;;;;5051761;28;20048;-68
2022/11/06 04:57:12;;;;;;;4.22;1.60;;;13.80;99.90;;;;;;5051787;28;20025;-68
2022/11/06 05:00:16;;;;;;;2.67;1.75;;;13.80;99.90;;;;;;5051865;28;20503;-68
2022/11/06 05:03:20;;;;;;;2.88;1.70;;;13.70;99.90;;;;;;5051764;28;20036;-68
2022/11/06 05:06:24;;;;;;;2.63;1.75;;;13.70;99.90;;;;;;5052044;28;20045;-68
2022/11/06 05:09:28;;;;;;;2.17;1.40;;;13.80;99.90;;;;;;5051950;28;20041;-68
2022/11/06 05:12:32;;;;;;;2.70;1.73;;;13.80;99.90;;;;;;5051957;28;20052;-68
2022/11/06 05:15:37;;;;;;;2.42;1.50;;;13.90;99.90;;;;;;5051975;28;20380;-68
2022/11/06 05:18:41;;;;;;;1.67;1.50;;;13.90;99.90;;;;;;5051765;28;20204;-68
2022/11/06 05:25:07;;;;;;;2.55;1.67;;;13.80;99.90;;;;;;5051933;28;20047;-68
2022/11/06 05:28:11;;;;;;;3.25;2.05;;;13.70;99.90;;;;;;5052007;28;20394;-68
2022/11/06 05:31:15;;;;;;;3.03;1.90;;;13.80;99.90;;;;;;5051788;28;20393;-68
2022/11/06 05:34:19;;;;;;;3.33;1.55;;;13.80;99.90;;;;;;5051218;28;20037;-68
2022/11/06 05:37:23;;;;;;;3.85;1.80;;;13.90;99.90;;;;;;5051410;28;20501;-68
2022/11/06 05:40:28;;;;;;;2.67;1.70;;;13.90;99.90;;;;;;5050956;28;20048;-68
2022/11/06 05:43:32;;;;;;;3.25;1.80;;;13.90;99.90;;;;;;5050854;28;20036;-68
2022/11/06 05:46:35;;;;;;;2.25;1.40;;;13.90;99.90;;;;;;5050990;28;20049;-68
2022/11/06 05:49:39;;;;;;;3.45;1.30;;;13.90;99.90;;;;;;5050965;28;20045;-67
2022/11/06 05:52:44;;;;;;;1.80;0.80;;;14.00;99.90;;;;;;5050707;28;20511;-67
2022/11/06 05:55:49;;;;;;;5.22;1.02;;;14.00;99.90;;;;;;5051195;28;20044;-67
2022/11/06 05:58:53;;;;;;;1.98;0.75;;;14.00;99.90;;;;;;5050849;28;20529;-66
2022/11/06 06:01:58;;;;;;;1.98;0.90;;;14.00;99.90;;;;;;5050908;28;20041;-67
2022/11/06 06:05:03;;;;;;;1.35;0.82;;;14.10;99.90;;;;;;5050878;28;20041;-67
2022/11/06 06:08:07;;;;;;;1.00;0.68;;;14.10;99.90;;;;;;5051169;28;20517;-68
2022/11/06 06:11:11;;;;;;;1.23;0.68;;;14.20;99.90;;;;;;5050877;28;20036;-69
2022/11/06 06:14:15;;;;;;;3.08;2.80;;;14.20;99.90;;;;;;5050752;28;20052;-69
2022/11/06 06:17:19;;;;;;;1.83;1.40;;;14.30;99.90;;;;;;5051009;28;20041;-68
2022/11/06 06:20:24;;;;;;;2.88;0.50;;;14.40;99.90;;;;;;5050787;28;20402;-66
2022/11/06 06:23:28;;;;;;;0.30;0.30;;;14.40;99.90;;;;;;5050770;28;20037;-68
2022/11/06 06:26:32;;;;;;;1.13;0.30;;;14.50;99.90;;;;;;5050732;28;20037;-68
2022/11/06 06:29:36;;;;;;;0.40;0.30;;;14.60;99.90;;;;;;5050922;28;20040;-68
2022/11/06 06:32:40;;;;;;;0.57;0.30;;;14.70;99.90;;;;;;5050515;28;20044;-68
2022/11/06 06:35:44;;;;;;;0.30;0.30;;;14.80;99.90;;;;;;5050880;28;20041;-68
2022/11/06 06:38:48;;;;;;;1.10;0.38;;;14.80;99.90;;;;;;5050784;28;20369;-68
2022/11/06 06:41:51;;;;;;;1.02;0.38;;;14.80;99.90;;;;;;5050808;28;20044;-68
2022/11/06 06:44:55;;;;;;;0.20;0.20;;;14.90;99.50;;;;;;5050845;28;20053;-69
2022/11/06 06:48:03;;;;;;;0.77;0.30;;;15.00;99.40;;;;;;5050517;28;20052;-68
2022/11/06 06:51:08;;;;;;;0.50;0.30;;;15.00;98.90;;;;;;5050437;28;20045;-69
2022/11/06 06:54:12;;;;;;;0.20;0.20;;;15.20;98.80;;;;;;5053567;28;20057;-67
2022/11/06 06:57:16;;;;;;;0.20;0.20;;;15.70;98.50;;;;;;5054032;28;20037;-68
2022/11/06 07:00:20;;;;;;;0.52;0.10;;;15.90;97.30;;;;;;5053982;28;20033;-69
2022/11/06 07:03:24;;;;;;;0.20;0.20;;;15.90;96.60;;;;;;5054032;28;20073;-68
2022/11/06 07:06:28;;;;;;;0.25;0.20;;;15.80;96.50;;;;;;5053853;28;20045;-68
2022/11/06 07:09:32;;;;;;;1.02;0.30;;;15.80;96.60;;;;;;5053277;28;20037;-69
2022/11/06 07:12:36;;;;;;;0.35;0.30;;;15.90;96.40;;;;;;5053868;28;20044;-69
2022/11/06 07:15:40;;;;;;;0.20;0.20;;;15.90;97.00;;;;;;5053751;28;20067;-69
2022/11/06 07:18:43;;;;;;;1.40;0.43;;;15.60;97.00;;;;;;5052848;28;20397;-69
2022/11/06 07:21:52;;;;;;;0.15;0.15;;;15.50;97.00;;;;;;5053584;28;20511;-69
2022/11/06 07:24:56;;;;;;;0.32;0.20;;;15.40;97.30;;;;;;5053431;28;20139;-69
2022/11/06 07:28:02;;;;;;;0.15;0.15;;;15.40;96.90;;;;;;5053543;28;20040;-69
2022/11/06 07:31:07;;;;;;;0.30;0.20;;;15.40;96.90;;;;;;5053495;28;20037;-69
2022/11/06 07:34:11;;;;;;;0.30;0.10;;;15.30;97.10;;;;;;5052978;28;20082;-69
2022/11/06 07:37:15;;;;;;;1.02;0.40;;;15.40;96.80;;;;;;5053101;28;20040;-69
2022/11/06 07:40:18;;;;;;;0.57;0.30;;;15.40;96.80;;;;;;5053176;28;20044;-69
2022/11/06 07:43:25;;;;;;;1.38;0.50;;;15.50;96.40;;;;;;5053221;28;20033;-69
2022/11/06 07:46:29;;;;;;;1.75;0.77;;;15.50;96.50;;;;;;5053030;28;20532;-69
2022/11/06 07:49:33;;;;;;;0.50;0.35;;;15.60;96.50;;;;;;5052951;28;20052;-69
2022/11/06 07:52:37;;;;;;;0.90;0.40;;;16.00;95.60;;;;;;5052776;28;20060;-69
2022/11/06 07:55:50;;;;;;;0.38;0.30;;;16.50;95.00;;;;;;5052291;28;20045;-69
2022/11/06 07:58:54;;;;;;;0.90;0.30;;;17.00;94.40;;;;;;5053086;28;20044;-68
2022/11/06 08:01:58;;;;;;;1.05;0.40;;;17.30;93.40;;;;;;5052974;28;20044;-68
2022/11/06 08:05:02;;;;;;;1.90;0.50;;;17.50;92.90;;;;;;5052598;28;20037;-68
2022/11/06 08:08:06;;;;;;;1.25;0.50;;;17.80;92.50;;;;;;5052668;28;20037;-67
2022/11/06 08:11:11;;;;;;;0.68;0.45;;;18.10;92.10;;;;;;5052665;28;20492;-67
2022/11/06 08:14:15;;;;;;;2.60;0.52;;;18.40;91.60;;;;;;5052150;28;20060;-67
2022/11/06 08:17:19;;;;;;;1.30;0.65;;;18.40;90.50;;;;;;5052595;28;20388;-67
2022/11/06 08:20:23;;;;;;;1.73;0.30;;;18.60;90.60;;;;;;5052529;28;20045;-67
2022/11/06 08:23:27;;;;;;;0.80;0.40;;;18.60;89.50;;;;;;5052538;28;20051;-67
2022/11/06 08:26:32;;;;;;;1.80;0.70;;;18.30;89.60;;;;;;5052253;28;20040;-67
2022/11/06 08:29:36;;;;;;;0.93;0.40;;;18.30;90.60;;;;;;5052312;28;20050;-67
2022/11/06 08:32:40;;;;;;;1.35;0.57;;;18.10;91.30;;;;;;5052311;28;20033;-69
2022/11/06 08:35:44;;;;;;;1.65;0.65;;;17.90;90.60;;;;;;5051753;28;20045;-68
2022/11/06 08:38:48;;;;;;;3.08;0.68;;;17.80;91.30;;;;;;5052266;28;20046;-67
2022/11/06 08:41:52;;;;;;;3.63;1.00;;;18.00;91.70;;;;;;5052246;28;20048;-67
2022/11/06 08:44:56;;;;;;;5.13;4.40;;;18.10;91.80;;;;;;5052026;28;20042;-68
2022/11/06 08:48:01;;;;;;;3.40;2.05;;;18.40;92.80;;;;;;5051981;28;20029;-67
2022/11/06 08:51:06;;;;;;;3.35;1.00;;;18.90;93.00;;;;;;5052186;28;20037;-69
2022/11/06 08:54:12;;;;;;;1.23;0.90;;;19.30;92.90;;;;;;5051771;28;20405;-68
2022/11/06 08:57:16;;;;;;;1.65;1.02;;;19.50;92.10;;;;;;5051780;28;20037;-67
2022/11/06 09:00:20;;;;;;;4.43;1.00;;;19.70;91.90;;;;;;5051750;28;20423;-68
2022/11/06 09:03:24;;;;;;;2.17;0.82;;;19.90;90.50;;;;;;5051726;28;20040;-68
2022/11/06 09:06:28;;;;;;;4.13;0.98;;;20.10;89.40;;;;;;5051910;28;20504;-69
2022/11/06 09:09:32;;;;;;;3.90;0.90;;;20.00;85.00;;;;;;5051567;28;20044;-68
2022/11/06 09:12:36;;;;;;;4.50;1.48;;;19.60;84.90;;;;;;5051203;28;20036;-67
2022/11/06 09:15:40;;;;;;;5.22;1.35;;;19.30;84.90;;;;;;5050670;28;20052;-67
2022/11/06 09:18:44;;;;;;;5.45;1.15;;;19.20;85.20;;;;;;5051176;28;20392;-67
2022/11/06 09:21:48;;;;;;;5.13;1.38;;;18.90;85.20;;;;;;5050924;28;20037;-67
2022/11/06 09:24:52;;;;;;;3.35;0.80;;;18.90;86.30;;;;;;5051096;28;20040;-66
2022/11/06 09:27:57;;;;;;;5.68;1.17;;;19.20;85.80;;;;;;5051126;28;20044;-67
2022/11/06 09:31:01;;;;;;;2.90;0.75;;;19.30;86.70;;;;;;5051326;28;20378;-67
2022/11/06 09:34:05;;;;;;;2.33;0.80;;;19.20;86.00;;;;;;5051042;28;20144;-67
2022/11/06 09:37:09;;;;;;;2.08;0.73;;;18.80;86.90;;;;;;5051237;28;20044;-68
2022/11/06 09:40:36;;;;;;;4.20;1.00;;;19.10;87.90;;;;;;5051109;28;20048;-67
2022/11/06 09:44:18;;;;;;;1.88;1.10;;;19.40;85.00;;;;;;5050823;28;20048;-68
2022/11/06 09:47:27;;;;;;;1.92;0.50;;;19.90;85.00;;;;;;5048870;28;20059;-67
2022/11/06 09:50:35;;;;;;;1.35;0.60;;;19.80;83.50;;;;;;5050620;28;20056;-67
2022/11/06 09:53:50;;;;;;;5.10;1.27;;;19.70;82.60;;;;;;5049921;28;20075;-67
2022/11/06 09:57:03;;;;;;;4.20;1.13;;;19.90;83.20;;;;;;5051031;28;20044;-67
2022/11/06 10:00:13;;;;;;;3.05;0.75;;;19.80;82.20;;;;;;5051526;28;20048;-67
2022/11/06 10:03:31;;;;;;;5.18;0.70;;;19.10;84.40;;;;;;5050821;28;20515;-68
2022/11/06 10:06:35;;;;;;;4.00;1.23;;;18.80;85.80;;;;;;5050524;28;20047;-67
2022/11/06 10:09:39;;;;;;;6.65;1.30;;;18.70;85.80;;;;;;5047348;28;20071;-67
2022/11/06 10:13:15;;;;;;;4.63;1.08;;;18.70;85.70;;;;;;5049642;28;20126;-68
2022/11/06 10:16:47;;;;;;;6.85;1.63;;;18.70;86.00;;;;;;5053361;28;20052;-67
2022/11/06 10:20:13;;;;;;;2.47;0.77;;;18.90;85.20;;;;;;5050477;28;20048;-67
2022/11/06 10:23:24;;;;;;;4.15;0.80;;;19.20;83.60;;;;;;5050346;28;20076;-68
2022/11/06 10:26:42;;;;;;;3.88;1.23;;;19.50;83.00;;;;;;5051233;28;20044;-67
2022/11/06 10:30:22;;;;;;;1.88;0.70;;;19.30;83.10;;;;;;5054174;28;20048;-68
2022/11/06 10:33:52;;;;;;;5.07;0.73;;;19.40;85.00;;;;;;5051847;28;20060;-68
2022/11/06 10:37:11;;;;;;;3.70;0.90;;;19.20;83.30;;;;;;5053682;28;20060;-67
2022/11/06 10:40:27;;;;;;;3.45;0.90;;;19.40;83.30;;;;;;5054471;28;20072;-68
2022/11/06 10:43:42;;;;;;;3.67;1.00;;;19.50;83.30;;;;;;5054167;28;20044;-67
2022/11/06 10:46:52;;;;;;;3.58;1.13;;;19.50;82.90;;;;;;5054097;28;20048;-68
2022/11/06 10:49:59;;;;;;;1.88;0.73;;;19.40;84.00;;;;;;5053918;28;20405;-67
2022/11/06 10:53:12;;;;;;;19.25;1.20;;;19.40;82.50;;;;;;5053967;28;20044;-68
2022/11/06 10:56:38;;;;;;;4.38;1.30;;;19.30;83.60;;;;;;5054306;28;20048;-68
2022/11/06 10:59:42;;;;;;;9.85;1.08;;;19.30;83.30;;;;;;5054030;28;20040;-68
2022/11/06 11:02:51;;;;;;;5.18;1.50;;;19.30;84.00;;;;;;5053877;28;20052;-67
2022/11/06 11:05:56;;;;;;;3.28;0.95;;;19.30;83.00;;;;;;5054222;28;20056;-67
2022/11/06 11:09:00;;;;;;;3.08;0.68;;;19.20;83.20;;;;;;5053627;28;20048;-68
2022/11/06 11:12:18;;;;;;;6.22;1.02;;;19.20;83.80;;;;;;5053527;28;20048;-68
2022/11/06 11:15:24;;;;;;;4.45;1.10;;;19.30;83.40;;;;;;5053765;28;20528;-68
2022/11/06 11:18:32;;;;;;;3.97;0.88;;;19.30;83.60;;;;;;5053672;28;20091;-67
2022/11/06 11:21:37;;;;;;;6.18;0.80;;;19.20;83.60;;;;;;5053624;28;20047;-68
2022/11/06 11:25:00;;;;;;;6.35;1.30;;;19.10;83.80;;;;;;5053590;28;20047;-66
2022/11/06 11:28:04;;;;;;;3.38;1.15;;;19.10;83.40;;;;;;5052991;28;20067;-65
2022/11/06 11:31:12;;;;;;;3.50;0.75;;;19.10;84.10;;;;;;5053358;28;20060;-65
2022/11/06 11:34:24;;;;;;;4.30;1.10;;;19.20;84.10;;;;;;5052794;28;20056;-65
2022/11/06 11:37:34;;;;;;;3.67;1.20;;;19.20;84.00;;;;;;5050899;28;20063;-65
2022/11/06 11:40:39;;;;;;;3.92;0.90;;;19.20;83.80;;;;;;5052645;28;20051;-65
2022/11/06 11:43:52;;;;;;;4.13;0.90;;;19.10;84.80;;;;;;5052618;28;20048;-65
2022/11/06 11:46:56;;;;;;;3.90;1.08;;;19.10;83.40;;;;;;5053248;28;20052;-68
2022/11/06 11:50:18;;;;;;;3.22;0.90;;;19.10;84.30;;;;;;5052725;28;20504;-67
2022/11/06 11:53:22;;;;;;;6.93;1.38;;;19.00;84.70;;;;;;5051596;28;20392;-68
2022/11/06 11:56:28;;;;;;;8.65;2.00;;;19.10;85.00;;;;;;5052946;28;20040;-68
2022/11/06 11:59:45;;;;;;;5.45;1.55;;;19.10;84.20;;;;;;5052847;28;20044;-68
2022/11/06 12:03:11;;;;;;;5.50;2.47;;;19.20;83.70;;;;;;5053024;28;20048;-68
2022/11/06 12:06:18;;;;;;;5.10;1.48;;;19.20;85.10;;;;;;5052912;28;20052;-68
2022/11/06 12:09:24;;;;;;;5.00;1.00;;;19.20;85.40;;;;;;5052981;28;20056;-68
2022/11/06 12:12:31;;;;;;;42.28;15.73;;;19.20;83.70;;;;;;5053007;28;20187;-68
2022/11/06 12:15:55;;;;;;;4.00;1.23;;;19.10;84.30;;;;;;5052559;28;20413;-68
2022/11/06 12:19:01;;;;;;;4.38;1.60;;;19.10;84.70;;;;;;5052791;28;20048;-68
2022/11/06 12:22:14;;;;;;;9.07;3.90;;;19.10;84.60;;;;;;5052765;28;20499;-68
2022/11/06 12:25:24;;;;;;;6.10;1.38;;;19.10;84.00;;;;;;5052717;28;20052;-68
2022/11/06 12:28:31;;;;;;;7.20;1.83;;;19.10;84.40;;;;;;5052560;28;20078;-68
2022/11/06 12:31:53;;;;;;;4.53;1.02;;;19.10;85.00;;;;;;5052025;28;20084;-68
2022/11/06 12:35:25;;;;;;;3.20;0.95;;;19.10;84.20;;;;;;5052211;28;20056;-68
2022/11/06 12:38:32;;;;;;;3.47;0.82;;;19.10;84.30;;;;;;5053896;28;20052;-68
2022/11/06 12:41:40;;;;;;;3.88;1.05;;;19.10;84.70;;;;;;5052283;28;20076;-68
2022/11/06 12:44:46;;;;;;;5.40;3.50;;;19.10;85.30;;;;;;5052367;28;20048;-68
2022/11/06 12:48:13;;;;;;;4.43;1.52;;;19.10;83.80;;;;;;5051245;28;20400;-67
2022/11/06 12:51:32;;;;;;;5.07;1.60;;;19.20;83.90;;;;;;5050722;28;20048;-68
2022/11/06 12:54:58;;;;;;;3.67;1.38;;;19.20;84.20;;;;;;5051887;28;20052;-68
2022/11/06 12:58:46;;;;;;;4.38;1.45;;;19.30;84.90;;;;;;5051760;28;20389;-68
2022/11/06 13:02:17;;;;;;;10.10;3.72;;;19.30;84.10;;;;;;5051839;28;20040;-68
2022/11/06 13:05:21;;;;;;;;;;;19.20;83.90;;;;;;5052291;28;20361;-68
2022/11/06 13:08:44;;;;;;;5.78;3.00;;;19.20;83.90;;;;;;5051757;28;20273;-68
2022/11/06 13:11:59;;;;;;;5.45;2.22;;;19.30;84.70;;;;;;5051529;28;20047;-68
2022/11/06 13:15:21;;;;;;;4.15;1.58;;;19.30;84.50;;;;;;5051479;28;20124;-68
2022/11/06 13:18:36;;;;;;;3.97;1.45;;;19.30;84.20;;;;;;5051293;28;20036;-68
2022/11/06 13:22:00;;;;;;;2.00;1.00;;;19.30;84.50;;;;;;5051317;28;20055;-67
2022/11/06 13:25:27;;;;;;;7.80;2.30;;;19.30;84.70;;;;;;5051621;28;20401;-67
2022/11/06 13:28:37;;;;;;;6.75;1.30;;;19.20;85.10;;;;;;5051381;28;20044;-68
2022/11/06 13:31:46;;;;;;;5.43;1.88;;;19.20;86.60;;;;;;5051356;28;20051;-68
2022/11/06 13:34:52;;;;;;;12.98;2.72;;;19.20;85.90;;;;;;5051209;28;20055;-68
2022/11/06 13:37:57;;;;;;;5.97;2.05;;;19.20;85.30;;;;;;5051502;28;20044;-68
2022/11/06 13:41:11;;;;;;;10.15;3.05;;;19.20;85.00;;;;;;5051499;28;20048;-68
2022/11/06 13:44:16;;;;;;;4.72;2.00;;;19.10;85.30;;;;;;5051058;28;20412;-68
2022/11/06 13:47:44;;;;;;;8.35;1.90;;;19.20;85.70;;;;;;5050990;28;20048;-69
2022/11/06 13:50:50;;;;;;;4.70;1.63;;;19.10;85.20;;;;;;5050748;28;20055;-69
2022/11/06 13:54:02;;;;;;;9.48;1.88;;;19.10;86.10;;;;;;5050730;28;20495;-69
2022/11/06 13:57:34;;;;;;;7.10;1.83;;;19.10;85.40;;;;;;5050945;28;20044;-68
2022/11/06 14:00:38;;;;;;;;;;;19.10;85.20;;;;;;5051568;28;20056;-69
2022/11/06 14:04:03;;;;;;;6.25;1.45;;;19.10;86.50;;;;;;5051157;28;20155;-69
2022/11/06 14:07:09;;;;;;;6.10;1.88;;;19.10;86.90;;;;;;5050822;28;20171;-68
2022/11/06 14:10:20;;;;;;;5.65;1.98;;;19.10;86.10;;;;;;5050750;28;20108;-69
2022/11/06 14:13:26;;;;;;;5.15;2.20;;;19.10;85.60;;;;;;5050620;28;20052;-69
2022/11/06 14:16:38;;;;;;;6.30;1.85;;;19.00;86.10;;;;;;5050954;28;20052;-69
2022/11/06 14:19:48;;;;;;;5.22;1.50;;;19.00;84.90;;;;;;5050587;28;20036;-68
2022/11/06 14:22:52;;;;;;;5.50;2.72;;;19.00;85.10;;;;;;5050849;28;20048;-69
2022/11/06 14:26:06;;;;;;;8.32;1.70;;;19.00;84.90;;;;;;5050943;28;20040;-68
2022/11/06 14:29:28;;;;;;;9.57;2.00;;;19.00;84.40;;;;;;5050552;28;20499;-69
2022/11/06 14:32:39;;;;;;;4.88;1.45;;;19.00;85.20;;;;;;5050642;28;20048;-69
2022/11/06 14:35:48;;;;;;;5.00;1.25;;;19.00;84.40;;;;;;5050420;28;20404;-68
2022/11/06 14:38:52;;;;;;;3.85;1.13;;;18.90;84.80;;;;;;5050350;28;20048;-69
2022/11/06 14:41:58;;;;;;;7.35;2.13;;;18.90;85.20;;;;;;5050509;28;20048;-69
2022/11/06 14:45:09;;;;;;;5.15;1.92;;;18.90;85.90;;;;;;5050446;28;20044;-69
2022/11/06 14:48:23;;;;;;;;;;;18.90;85.90;;;;;;5050999;28;20060;-69
2022/11/06 14:51:28;;;;;;;9.70;2.42;;;18.90;85.20;;;;;;5050093;28;20394;-69
2022/11/06 14:54:36;;;;;;;11.68;3.05;;;18.90;85.80;;;;;;5050143;28;20408;-69
2022/11/06 14:57:49;;;;;;;7.80;3.22;;;18.80;84.60;;;;;;5050343;28;20051;-69
2022/11/06 15:01:00;;;;;;;5.57;1.45;;;18.80;85.20;;;;;;5050275;28;20499;-69
2022/11/06 15:04:11;;;;;;;4.50;1.10;;;18.80;85.30;;;;;;5050742;28;20044;-69
2022/11/06 15:07:53;;;;;;;14.57;2.47;;;18.80;86.00;;;;;;5050142;28;20040;-69
2022/11/06 15:10:57;;;;;;;5.03;1.80;;;18.80;86.50;;;;;;5050085;28;20103;-69
2022/11/06 15:14:04;;;;;;;6.50;1.23;;;18.80;85.90;;;;;;5051432;28;20040;-69
2022/11/06 15:17:14;;;;;;;5.57;1.30;;;18.70;85.90;;;;;;5053724;28;20044;-69
2022/11/06 15:20:22;;;;;;;16.90;10.25;;;18.70;86.60;;;;;;5052771;28;20048;-69
2022/11/06 15:23:30;;;;;;;15.48;8.35;;;18.70;86.00;;;;;;5053448;28;20052;-68
2022/11/06 15:26:46;;;;;;;9.27;2.85;;;18.60;86.00;;;;;;5053881;28;20036;-68
2022/11/06 15:29:58;;;;;;;6.10;2.63;;;18.60;86.40;;;;;;5052737;28;20059;-68
2022/11/06 15:33:12;;;;;;;11.15;3.97;;;18.60;86.90;;;;;;5052618;28;20040;-70
2022/11/06 15:36:17;;;;;;;9.85;6.00;;;18.50;86.20;;;;;;5053468;28;20120;-70
2022/11/06 15:39:32;;;;;;;6.75;3.70;;;18.50;85.80;;;;;;5051389;28;20365;-68
2022/11/06 15:42:36;;;;;;;8.65;4.75;;;18.50;85.70;;;;;;5052362;28;20400;-68
2022/11/06 15:45:41;;;;;;;7.88;3.00;;;18.50;85.80;;;;;;5055071;28;20052;-69
2022/11/06 15:48:45;;;;;;;5.57;2.80;;;18.40;86.10;;;;;;5053145;28;20072;-68
2022/11/06 15:51:55;;;;;;;6.88;2.53;;;18.40;86.50;;;;;;5052723;28;20044;-70
2022/11/06 15:54:59;;;;;;;9.40;2.88;;;18.30;86.90;;;;;;5052884;28;20056;-69
2022/11/06 15:58:15;;;;;;;6.90;2.45;;;18.20;87.50;;;;;;5053312;28;20040;-69
2022/11/06 16:01:30;;;;;;;10.45;3.33;;;18.20;88.40;;;;;;5052474;28;20048;-69
2022/11/06 16:04:35;;;;;;;7.03;2.95;;;18.10;89.30;;;;;;5053072;28;20303;-69
2022/11/06 16:07:40;;;;;;;9.82;4.00;;;18.00;89.90;;;;;;5052745;28;20048;-68
2022/11/06 16:10:47;;;;;;;8.07;2.60;;;17.90;90.00;;;;;;5052665;28;20139;-67
2022/11/06 16:13:51;;;;;;;9.48;1.73;;;17.90;90.10;;;;;;5052953;28;20040;-67
2022/11/06 16:16:56;;;;;;;7.18;2.58;;;17.90;90.30;;;;;;5052701;28;20052;-68
2022/11/06 16:20:03;;;;;;;4.60;2.25;;;17.90;90.40;;;;;;5052652;28;20044;-68
2022/11/06 16:23:12;;;;;;;11.80;5.82;;;17.80;90.50;;;;;;5052538;28;20048;-68
2022/11/06 16:26:34;;;;;;;7.32;3.13;;;17.80;90.50;;;;;;5052575;28;20684;-68
2022/11/06 16:29:38;;;;;;;8.45;1.85;;;17.80;90.60;;;;;;5051918;28;20051;-68
2022/11/06 16:32:43;;;;;;;9.73;2.25;;;17.70;90.60;;;;;;5051715;28;20047;-68